createdAt,value
2023-01-05T00:00:43.993Z,101581.31
2023-01-05T00:05:49.132Z,101571.63
2023-01-05T00:11:10.580Z,101575.00
2023-01-05T00:16:33.670Z,101571.44
2023-01-05T00:21:56.435Z,101556.75
2023-01-05T00:27:00.313Z,101566.09
2023-01-05T00:32:04.107Z,101572.84
2023-01-05T00:37:09.243Z,101570.88
2023-01-05T00:42:13.016Z,101572.56
2023-01-05T00:47:16.912Z,101568.84
2023-01-05T00:52:22.178Z,101581.31
2023-01-05T00:57:25.990Z,101578.34
2023-01-05T01:02:30.672Z,101576.28
2023-01-05T01:07:35.864Z,101574.59
2023-01-05T01:12:44.630Z,101586.06
2023-01-05T01:17:48.428Z,101577.44
2023-01-05T01:22:53.491Z,101588.19
2023-01-05T01:27:57.307Z,101589.00
2023-01-05T01:33:01.452Z,101599.41
2023-01-05T01:38:06.590Z,101597.75
2023-01-05T01:43:14.855Z,101591.34
2023-01-05T01:48:19.958Z,101600.13
2023-01-05T01:53:28.965Z,101618.44
2023-01-05T01:58:33.719Z,101628.66
2023-01-05T02:03:38.811Z,101624.47
2023-01-05T02:08:44.040Z,101623.47
2023-01-05T02:14:03.084Z,101626.44
2023-01-05T02:19:48.485Z,101634.38
2023-01-05T02:25:13.103Z,101637.13
2023-01-05T02:30:59.530Z,101637.13
2023-01-05T02:36:13.203Z,101638.31
2023-01-05T02:41:24.156Z,101634.13
2023-01-05T02:46:31.864Z,101632.63
2023-01-05T02:51:40.000Z,101656.84
2023-01-05T02:56:51.162Z,101646.87
2023-01-05T03:02:00.366Z,101649.56
2023-01-05T03:07:07.051Z,101658.47
2023-01-05T03:12:35.674Z,101669.69
2023-01-05T03:17:45.342Z,101671.56
2023-01-05T03:23:09.405Z,101667.28
2023-01-05T03:28:36.625Z,101670.59
2023-01-05T03:34:04.204Z,101656.19
2023-01-05T03:39:10.103Z,101651.78
2023-01-05T03:44:15.151Z,101666.31
2023-01-05T03:49:21.511Z,101666.31
2023-01-05T03:54:26.602Z,101669.09
2023-01-05T03:59:30.495Z,101676.63
2023-01-05T04:04:36.556Z,101678.63
2023-01-05T04:09:42.065Z,101685.47
2023-01-05T04:14:46.366Z,101675.16
2023-01-05T04:19:51.543Z,101676.63
2023-01-05T04:24:56.716Z,101667.00
2023-01-05T04:30:00.568Z,101681.75
2023-01-05T04:35:11.264Z,101673.16
2023-01-05T04:40:16.048Z,101697.25
2023-01-05T04:45:20.413Z,101675.59
2023-01-05T04:50:27.523Z,101686.25
2023-01-05T04:55:31.932Z,101689.66
2023-01-05T05:00:36.060Z,101677.72
2023-01-05T05:05:43.382Z,101685.09
2023-01-05T05:10:49.046Z,101701.69
2023-01-05T05:15:52.915Z,101711.16
2023-01-05T05:20:58.126Z,101708.56
2023-01-05T05:26:02.270Z,101706.59
2023-01-05T05:31:06.408Z,101710.16
2023-01-05T05:36:11.730Z,101709.16
2023-01-05T05:41:15.508Z,101710.94
2023-01-05T05:46:19.277Z,101717.63
2023-01-05T05:51:24.791Z,101725.28
2023-01-05T05:56:28.529Z,101741.75
2023-01-05T06:01:32.436Z,101745.94
2023-01-05T06:06:37.637Z,101752.00
2023-01-05T06:11:41.357Z,101749.50
2023-01-05T06:16:45.796Z,101755.50
2023-01-05T06:21:51.110Z,101767.59
2023-01-05T06:26:54.914Z,101771.78
2023-01-05T06:31:58.797Z,101766.88
2023-01-05T06:37:06.383Z,101773.75
2023-01-05T06:42:10.187Z,101784.09
2023-01-05T06:47:14.249Z,101807.25
2023-01-05T06:52:19.381Z,101818.47
2023-01-05T06:57:23.434Z,101807.25
2023-01-05T07:02:27.220Z,101826.84
2023-01-05T07:07:32.410Z,101828.72
2023-01-05T07:12:36.241Z,101825.25
2023-01-05T07:17:39.977Z,101839.53
2023-01-05T07:22:45.092Z,101822.56
2023-01-05T07:27:52.179Z,101831.91
2023-01-05T07:32:59.494Z,101830.91
2023-01-05T07:38:04.581Z,101849.69
2023-01-05T07:43:08.519Z,101848.22
2023-01-05T07:48:12.268Z,101839.66
2023-01-05T07:53:17.357Z,101844.53
2023-01-05T07:58:21.102Z,101858.53
2023-01-05T08:03:25.287Z,101871.25
2023-01-05T08:08:30.564Z,101860.03
2023-01-05T08:13:51.870Z,101878.09
2023-01-05T08:18:55.695Z,101886.66
2023-01-05T08:24:01.111Z,101892.00
2023-01-05T08:29:04.818Z,101891.81
2023-01-05T08:34:08.608Z,101887.84
2023-01-05T08:39:14.557Z,101890.53
2023-01-05T08:44:18.838Z,101908.50
2023-01-05T08:49:23.471Z,101914.47
2023-01-05T08:54:28.944Z,101930.66
2023-01-05T08:59:32.681Z,101936.22
2023-01-05T09:04:36.604Z,101928.66
2023-01-05T09:09:41.780Z,101936.34
2023-01-05T09:14:45.619Z,101935.31
2023-01-05T09:19:49.416Z,101928.44
2023-01-05T09:24:54.564Z,101931.25
2023-01-05T09:29:58.290Z,101936.50
2023-01-05T09:35:02.062Z,101945.87
2023-01-05T09:40:08.553Z,101950.53
2023-01-05T09:45:15.617Z,101962.75
2023-01-05T09:50:22.097Z,101968.44
2023-01-05T09:55:31.553Z,101969.81
2023-01-05T10:00:39.697Z,101978.75
2023-01-05T10:05:46.639Z,101989.75
2023-01-05T10:11:10.777Z,101985.59
2023-01-05T10:16:18.500Z,101985.56
2023-01-05T10:21:30.677Z,101983.09
2023-01-05T10:27:23.113Z,101995.91
2023-01-05T10:32:18.479Z,101995.06
2023-01-05T10:37:40.890Z,101995.94
2023-01-05T10:43:05.174Z,101996.13
2023-01-05T10:48:14.998Z,101999.19
2023-01-05T10:53:21.943Z,102006.87
2023-01-05T10:58:29.799Z,102007.75
2023-01-05T11:04:23.938Z,102006.47
2023-01-05T11:09:21.855Z,102010.56
2023-01-05T11:14:29.801Z,102007.75
2023-01-05T11:19:37.744Z,102004.88
2023-01-05T11:24:41.528Z,102003.47
2023-01-05T11:29:46.682Z,102002.00
2023-01-05T11:34:51.762Z,101983.84
2023-01-05T11:39:57.643Z,101986.28
2023-01-05T11:45:05.601Z,101981.00
2023-01-05T11:50:21.413Z,101993.44
2023-01-05T11:55:31.736Z,101980.75
2023-01-05T12:00:54.077Z,101978.44
2023-01-05T12:06:01.625Z,101970.41
2023-01-05T12:11:15.081Z,101968.03
2023-01-05T12:16:41.720Z,101974.12
2023-01-05T12:22:02.155Z,101968.16
2023-01-05T12:27:17.924Z,101963.25
2023-01-05T12:38:23.948Z,101951.47
2023-01-05T12:43:40.952Z,101964.06
2023-01-05T12:48:49.014Z,101953.84
2023-01-05T12:53:58.286Z,101954.06
2023-01-05T12:59:12.189Z,101960.84
2023-01-05T13:04:46.293Z,101946.38
2023-01-05T13:10:02.645Z,101949.38
2023-01-05T13:15:17.827Z,101946.75
2023-01-05T13:20:31.513Z,101942.28
2023-01-05T13:25:43.140Z,101941.19
2023-01-05T13:30:58.723Z,101945.66
2023-01-05T13:36:21.556Z,101947.97
2023-01-05T13:41:35.966Z,101940.47
2023-01-05T13:46:53.555Z,101944.03
2023-01-05T13:52:00.178Z,101947.25
2023-01-05T13:57:09.194Z,101947.19
2023-01-05T14:02:30.089Z,101941.72
2023-01-05T14:07:41.661Z,101944.19
2023-01-05T14:12:48.356Z,101943.47
2023-01-05T14:17:53.853Z,101950.38
2023-01-05T14:22:59.608Z,101936.34
2023-01-05T14:28:21.939Z,101945.78
2023-01-05T14:33:25.772Z,101942.56
2023-01-05T14:38:31.430Z,101933.75
2023-01-05T14:43:36.658Z,101940.28
2023-01-05T14:48:42.826Z,101940.16
2023-01-05T14:53:50.008Z,101941.38
2023-01-05T14:59:07.507Z,101955.69
2023-01-05T15:04:16.507Z,101948.47
2023-01-05T15:09:38.246Z,101954.81
2023-01-05T15:15:16.964Z,101945.69
2023-01-05T15:20:52.108Z,101944.31
2023-01-05T15:26:26.133Z,101937.63
2023-01-05T15:31:36.962Z,101944.53
2023-01-05T15:36:47.574Z,101945.91
2023-01-05T15:41:52.429Z,101941.38
2023-01-05T15:46:57.702Z,101940.56
2023-01-05T15:52:02.116Z,101934.09
2023-01-05T15:57:21.119Z,101933.72
2023-01-05T16:02:28.278Z,101937.41
2023-01-05T16:07:32.551Z,101931.63
2023-01-05T16:12:37.209Z,101925.47
2023-01-05T16:17:42.712Z,101922.00
2023-01-05T16:22:52.746Z,101919.41
2023-01-05T16:28:03.444Z,101918.41
2023-01-05T16:33:23.571Z,101914.16
2023-01-05T16:38:28.646Z,101911.66
2023-01-05T16:43:35.417Z,101898.84
2023-01-05T16:48:49.755Z,101909.47
2023-01-05T16:53:56.856Z,101911.44
2023-01-05T16:59:01.272Z,101900.19
2023-01-05T17:04:13.512Z,101911.44
2023-01-05T17:09:21.534Z,101914.31
2023-01-05T17:14:27.364Z,101914.41
2023-01-05T17:19:35.887Z,101922.16
2023-01-05T17:24:40.210Z,101908.66
2023-01-05T17:29:44.004Z,101914.34
2023-01-05T17:34:49.201Z,101909.50
2023-01-05T17:39:52.970Z,101905.16
2023-01-05T17:44:56.822Z,101905.34
2023-01-05T17:50:01.968Z,101901.75
2023-01-05T17:55:06.495Z,101899.16
2023-01-05T18:00:13.325Z,101900.09
2023-01-05T18:05:19.668Z,101896.69
2023-01-05T18:10:26.896Z,101897.84
2023-01-05T18:15:32.833Z,101895.97
2023-01-05T18:20:40.312Z,101881.34
2023-01-05T18:25:44.162Z,101889.28
2023-01-05T18:30:48.412Z,101886.63
2023-01-05T18:40:58.782Z,101886.09
2023-01-05T18:46:03.527Z,101872.09
2023-01-05T18:51:09.627Z,101871.19
2023-01-05T18:56:14.910Z,101869.53
2023-01-05T19:01:20.409Z,101875.41
2023-01-05T19:06:26.730Z,101870.22
2023-01-05T19:11:30.731Z,101873.78
2023-01-05T19:16:36.341Z,101877.87
2023-01-05T19:21:43.041Z,101877.16
2023-01-05T19:26:48.819Z,101871.22
2023-01-05T19:31:52.591Z,101856.94
2023-01-05T19:36:57.707Z,101842.28
2023-01-05T19:42:01.511Z,101840.84
2023-01-05T19:47:05.355Z,101846.63
2023-01-05T19:52:10.636Z,101832.25
2023-01-05T19:57:14.708Z,101825.66
2023-01-05T20:02:18.578Z,101830.97
2023-01-05T20:07:23.809Z,101825.31
2023-01-05T20:12:27.711Z,101821.31
2023-01-05T20:17:33.524Z,101815.03
2023-01-05T20:22:38.766Z,101817.97
2023-01-05T20:27:42.621Z,101815.22
2023-01-05T20:32:46.388Z,101825.84
2023-01-05T20:37:51.510Z,101819.38
2023-01-05T20:42:55.268Z,101827.84
2023-01-05T20:47:59.099Z,101846.72
2023-01-05T20:53:04.213Z,101849.31
2023-01-05T20:58:07.998Z,101845.34
2023-01-05T21:03:11.823Z,101837.75
2023-01-05T21:08:17.052Z,101847.59
2023-01-05T21:13:31.292Z,101842.69
2023-01-05T21:18:36.682Z,101835.44
2023-01-05T21:23:41.918Z,101831.34
2023-01-05T21:28:46.617Z,101824.78
2023-01-05T21:33:50.943Z,101811.56
2023-01-05T21:39:00.935Z,101810.69
2023-01-05T21:44:08.192Z,101818.31
2023-01-05T21:49:13.013Z,101810.69
2023-01-05T21:54:35.893Z,101804.09
2023-01-05T21:59:40.010Z,101786.13
2023-01-05T22:04:44.631Z,101779.16
2023-01-05T22:09:49.835Z,101778.69
2023-01-05T22:14:53.789Z,101773.97
2023-01-05T22:19:57.714Z,101763.13
2023-01-05T22:25:02.861Z,101753.69
2023-01-05T22:30:07.987Z,101758.47
2023-01-05T22:35:11.745Z,101776.84
2023-01-05T22:40:17.369Z,101754.91
2023-01-05T22:45:21.167Z,101756.88
2023-01-05T22:50:24.928Z,101760.78
2023-01-05T22:55:30.055Z,101766.84
2023-01-05T23:00:33.813Z,101765.22
2023-01-05T23:05:39.311Z,101762.81
2023-01-05T23:10:44.421Z,101766.75
2023-01-05T23:15:54.437Z,101768.00
2023-01-05T23:21:00.711Z,101758.53
2023-01-05T23:26:10.172Z,101760.84
2023-01-05T23:31:16.204Z,101771.34
2023-01-05T23:36:21.483Z,101760.94
2023-01-05T23:41:26.552Z,101750.88
2023-01-05T23:46:30.321Z,101746.34
2023-01-05T23:51:34.187Z,101747.03
2023-01-05T23:56:39.383Z,101737.19
